Time;durP1;ratioP1;P1;durP2;ratioP2;P2;SDS_P1;SDS_P2;PMS_P1;PMS_P2;Temp;Humidity;BMP_temperature;BMP_pressure;BME280_temperature;BME280_humidity;BME280_pressure;Samples;Min_cycle;Max_cycle;Signal;HPM_P1;HPM_P2
2021/05/03 00:01:39;;;;;;;12.63;10.90;;;10.70;61.80;;;;;;4987821;28;20364;-80
2021/05/03 00:04:05;;;;;;;14.40;11.20;;;10.80;61.80;;;;;;4987922;28;20054;-80
2021/05/03 00:06:30;;;;;;;13.50;10.57;;;10.70;61.70;;;;;;4991950;28;20030;-81
2021/05/03 00:08:56;;;;;;;12.40;10.87;;;10.70;61.90;;;;;;4991730;28;20412;-80
2021/05/03 00:11:22;;;;;;;15.37;11.50;;;10.70;62.10;;;;;;4987013;28;20027;-81
2021/05/03 00:13:47;;;;;;;12.20;11.00;;;10.70;62.30;;;;;;4989018;28;20255;-80
2021/05/03 00:16:13;;;;;;;11.87;10.43;;;10.60;62.50;;;;;;4987803;28;20037;-80
2021/05/03 00:18:39;;;;;;;12.27;10.57;;;10.60;62.80;;;;;;4988872;28;20049;-80
2021/05/03 00:21:05;;;;;;;12.97;10.63;;;10.60;62.70;;;;;;4987952;28;20019;-80
2021/05/03 00:23:30;;;;;;;13.00;11.40;;;10.70;62.40;;;;;;4991736;28;20022;-81
2021/05/03 00:25:56;;;;;;;11.53;10.37;;;10.70;62.30;;;;;;4989737;28;20891;-80
2021/05/03 00:28:22;;;;;;;13.37;10.73;;;10.80;62.30;;;;;;4990907;28;20039;-81
2021/05/03 00:30:48;;;;;;;13.93;11.93;;;10.70;62.10;;;;;;4999619;28;20481;-81
2021/05/03 00:33:14;;;;;;;16.07;11.73;;;10.80;62.30;;;;;;4992690;28;20022;-81
2021/05/03 00:35:40;;;;;;;12.60;11.30;;;10.70;62.40;;;;;;4986607;28;20372;-81
2021/05/03 00:38:06;;;;;;;13.00;11.40;;;10.70;62.50;;;;;;4992330;28;20085;-81
2021/05/03 00:40:32;;;;;;;13.37;11.97;;;10.70;62.50;;;;;;4986054;28;20070;-81
2021/05/03 00:42:58;;;;;;;14.53;11.60;;;10.80;62.80;;;;;;4977008;28;20121;-81
2021/05/03 00:45:24;;;;;;;14.20;11.97;;;10.70;63.00;;;;;;4992599;28;20022;-81
2021/05/03 00:47:50;;;;;;;16.67;12.23;;;10.70;63.20;;;;;;4990508;28;20034;-81
2021/05/03 00:50:18;;;;;;;14.20;12.10;;;10.70;63.50;;;;;;4990179;28;20030;-81
2021/05/03 00:52:44;;;;;;;13.63;12.13;;;10.70;63.80;;;;;;4991674;28;20109;-81
2021/05/03 00:55:10;;;;;;;13.27;11.83;;;10.70;64.00;;;;;;4991786;28;20097;-81
2021/05/03 00:57:37;;;;;;;17.47;11.20;;;10.70;64.00;;;;;;4982702;28;20387;-81
2021/05/03 01:00:06;;;;;;;12.67;11.37;;;10.70;64.00;;;;;;4991061;28;20505;-81
2021/05/03 01:02:32;;;;;;;14.20;12.37;;;10.80;64.00;;;;;;4991073;28;20034;-81
2021/05/03 01:04:57;;;;;;;12.90;11.00;;;10.70;63.80;;;;;;4992656;28;20400;-81
2021/05/03 01:07:23;;;;;;;12.00;10.77;;;10.70;63.90;;;;;;4990193;28;20027;-81
2021/05/03 01:09:49;;;;;;;13.43;11.50;;;10.70;63.90;;;;;;4990793;28;20501;-81
2021/05/03 01:12:15;;;;;;;13.73;11.93;;;10.70;63.90;;;;;;4990118;28;20023;-81
2021/05/03 01:14:40;;;;;;;13.07;11.70;;;10.70;64.00;;;;;;4985137;28;20503;-81
2021/05/03 01:17:06;;;;;;;15.43;13.37;;;10.70;64.10;;;;;;4990455;28;20042;-81
2021/05/03 01:19:32;;;;;;;14.33;12.87;;;10.70;64.20;;;;;;4989797;28;20065;-81
2021/05/03 01:21:58;;;;;;;14.87;13.17;;;10.70;64.20;;;;;;4990966;28;20036;-81
2021/05/03 01:24:23;;;;;;;17.17;13.43;;;10.70;64.20;;;;;;4981103;28;20100;-81
2021/05/03 01:26:49;;;;;;;16.57;14.17;;;10.70;64.20;;;;;;4991260;28;20146;-81
2021/05/03 01:29:16;;;;;;;14.93;12.73;;;10.70;64.40;;;;;;4992672;28;20459;-80
2021/05/03 01:31:49;;;;;;;15.83;13.47;;;10.70;64.50;;;;;;5007786;28;20047;-80
2021/05/03 01:34:15;;;;;;;15.13;13.23;;;10.70;64.50;;;;;;4999009;28;20022;-81
2021/05/03 01:36:43;;;;;;;15.63;13.83;;;10.60;64.50;;;;;;4998324;28;20053;-80
2021/05/03 01:39:11;;;;;;;15.53;13.70;;;10.60;64.70;;;;;;5000109;28;20023;-80
2021/05/03 01:41:37;;;;;;;17.50;13.77;;;10.60;64.80;;;;;;5003361;28;20026;-80
2021/05/03 01:44:09;;;;;;;15.53;12.17;;;10.60;64.80;;;;;;5020611;28;20114;-81
2021/05/03 01:46:35;;;;;;;13.80;12.40;;;10.60;64.70;;;;;;5000474;28;20030;-81
2021/05/03 01:49:04;;;;;;;13.93;12.53;;;10.60;64.30;;;;;;5001364;28;20482;-80
2021/05/03 01:51:30;;;;;;;14.10;12.33;;;10.60;64.40;;;;;;4995961;28;20065;-81
2021/05/03 01:53:57;;;;;;;12.43;11.13;;;10.50;64.30;;;;;;5000003;28;20046;-80
2021/05/03 01:56:26;;;;;;;13.07;11.30;;;10.40;64.40;;;;;;4994532;28;20030;-81
2021/05/03 01:58:53;;;;;;;11.30;10.07;;;10.40;64.50;;;;;;5017674;28;20033;-79
2021/05/03 02:01:20;;;;;;;12.67;11.27;;;10.50;64.60;;;;;;5003163;28;20042;-79
2021/05/03 02:03:47;;;;;;;12.23;10.40;;;10.50;64.70;;;;;;5003841;28;20122;-79
2021/05/03 02:06:16;;;;;;;11.27;10.07;;;10.40;65.00;;;;;;5002564;28;20033;-79
2021/05/03 02:08:43;;;;;;;11.23;9.83;;;10.30;65.30;;;;;;4992759;28;20038;-80
2021/05/03 02:11:09;;;;;;;9.90;8.87;;;10.30;65.30;;;;;;4992527;28;20030;-80
2021/05/03 02:13:35;;;;;;;9.77;8.40;;;10.30;65.40;;;;;;4990629;28;20039;-81
2021/05/03 02:16:02;;;;;;;11.60;9.97;;;10.30;65.40;;;;;;5001971;28;20034;-80
2021/05/03 02:18:28;;;;;;;12.57;11.27;;;10.30;65.50;;;;;;4998761;28;20125;-80
2021/05/03 02:20:54;;;;;;;14.00;12.13;;;10.30;65.60;;;;;;5002200;28;20069;-80
2021/05/03 02:23:21;;;;;;;14.03;11.50;;;10.30;65.70;;;;;;4995722;28;20093;-80
2021/05/03 02:25:46;;;;;;;13.20;11.53;;;10.20;65.60;;;;;;4999232;28;20031;-81
2021/05/03 02:28:12;;;;;;;14.00;12.50;;;10.30;65.80;;;;;;4989889;28;20059;-81
2021/05/03 02:30:40;;;;;;;15.27;13.47;;;10.30;65.90;;;;;;4985361;28;20136;-81
2021/05/03 02:33:06;;;;;;;14.63;12.50;;;10.30;65.90;;;;;;4993294;28;20034;-80
2021/05/03 02:35:33;;;;;;;15.53;12.93;;;10.30;65.80;;;;;;4991122;28;20062;-81
2021/05/03 02:38:02;;;;;;;16.03;12.23;;;10.30;65.70;;;;;;4989904;28;20065;-81
2021/05/03 02:40:28;;;;;;;13.93;12.53;;;10.30;65.60;;;;;;4993212;28;20145;-81
2021/05/03 02:42:57;;;;;;;14.93;13.10;;;10.30;65.60;;;;;;4991782;28;20041;-81
2021/05/03 02:45:24;;;;;;;16.90;13.80;;;10.30;65.50;;;;;;4992602;28;20058;-81
2021/05/03 02:47:50;;;;;;;14.97;13.37;;;10.30;65.50;;;;;;4982611;28;20038;-80
2021/05/03 02:50:17;;;;;;;15.80;13.20;;;10.30;65.50;;;;;;4985701;28;20053;-81
2021/05/03 02:52:43;;;;;;;18.77;14.30;;;10.30;65.60;;;;;;4993208;28;20030;-81
2021/05/03 02:55:11;;;;;;;15.03;13.47;;;10.30;65.50;;;;;;4993831;28;20035;-80
2021/05/03 02:57:43;;;;;;;14.50;13.00;;;10.30;65.60;;;;;;4991177;28;20035;-81
2021/05/03 03:00:15;;;;;;;18.30;14.90;;;10.30;65.50;;;;;;4990108;28;20031;-81
2021/05/03 03:02:41;;;;;;;14.73;11.23;;;10.10;65.40;;;;;;4989658;28;20149;-80
2021/05/03 03:05:07;;;;;;;14.60;11.10;;;10.10;65.80;;;;;;5009315;28;20038;-80
2021/05/03 03:07:33;;;;;;;10.73;9.40;;;10.10;65.70;;;;;;4992459;28;20035;-81
2021/05/03 03:09:59;;;;;;;14.97;10.40;;;10.10;65.40;;;;;;4984062;28;20138;-81
2021/05/03 03:12:25;;;;;;;13.73;10.77;;;10.10;65.40;;;;;;4992223;28;20027;-81
2021/05/03 03:14:51;;;;;;;10.37;9.13;;;10.00;65.30;;;;;;4992720;28;20022;-81
2021/05/03 03:17:17;;;;;;;11.07;9.77;;;10.00;65.30;;;;;;4992666;28;20359;-80
2021/05/03 03:19:43;;;;;;;11.77;10.53;;;9.90;65.20;;;;;;4985551;28;20031;-81
2021/05/03 03:22:09;;;;;;;12.43;11.13;;;9.80;65.30;;;;;;4991798;28;20161;-81
2021/05/03 03:24:35;;;;;;;13.23;11.63;;;9.80;65.50;;;;;;4992587;28;20022;-81
2021/05/03 03:27:01;;;;;;;12.80;11.40;;;9.70;65.60;;;;;;4991804;28;20030;-81
2021/05/03 03:29:27;;;;;;;13.63;12.23;;;9.70;65.80;;;;;;4992146;28;20041;-81
2021/05/03 03:31:53;;;;;;;14.63;12.87;;;9.70;66.00;;;;;;4992570;28;20044;-80
2021/05/03 03:34:19;;;;;;;15.00;13.40;;;9.60;66.00;;;;;;4995368;28;20030;-81
2021/05/03 03:36:46;;;;;;;15.27;13.67;;;9.60;66.10;;;;;;4995116;28;20030;-81
2021/05/03 03:39:12;;;;;;;14.43;12.90;;;9.50;66.10;;;;;;4992839;28;20431;-80
2021/05/03 03:41:38;;;;;;;16.63;14.17;;;9.50;66.40;;;;;;4993742;28;20033;-81
2021/05/03 03:44:04;;;;;;;15.70;13.90;;;9.40;66.40;;;;;;4994781;28;20033;-81
2021/05/03 03:46:30;;;;;;;15.90;13.70;;;9.40;66.40;;;;;;5010808;28;20026;-81
2021/05/03 03:48:56;;;;;;;15.43;13.50;;;9.30;66.40;;;;;;5009141;28;20457;-81
2021/05/03 03:51:22;;;;;;;12.40;11.10;;;9.20;66.10;;;;;;5000407;28;20026;-81
2021/05/03 03:53:49;;;;;;;17.97;14.43;;;9.10;66.10;;;;;;5001948;28;20691;-81
2021/05/03 03:56:17;;;;;;;18.03;15.83;;;9.10;66.00;;;;;;4988917;28;20579;-81
2021/05/03 03:58:43;;;;;;;13.57;10.97;;;9.10;66.00;;;;;;4993524;28;20117;-81
2021/05/03 04:01:11;;;;;;;12.57;11.27;;;9.00;66.00;;;;;;4993841;28;20176;-81
2021/05/03 04:03:48;;;;;;;11.50;10.30;;;9.10;66.10;;;;;;4993466;28;20025;-81
2021/05/03 04:07:01;;;;;;;11.20;9.80;;;9.10;65.70;;;;;;4991257;28;20161;-80
2021/05/03 04:09:10;;;;;;;11.73;9.50;;;9.10;65.50;;;;;;5001513;28;20048;-81
2021/05/03 04:27:34;;;;;;;9.03;7.67;;;9.20;65.50;;;;;;5013163;28;20040;-81
2021/05/03 04:30:00;;;;;;;11.07;8.33;;;9.30;65.30;;;;;;4995246;28;20050;-80
2021/05/03 04:32:25;;;;;;;10.53;8.93;;;9.30;65.20;;;;;;4986336;28;20462;-81
2021/05/03 04:34:51;;;;;;;11.50;9.50;;;9.30;65.00;;;;;;4991303;28;20113;-81
2021/05/03 04:37:17;;;;;;;13.10;9.47;;;9.40;64.90;;;;;;4994515;28;20053;-81
2021/05/03 04:39:43;;;;;;;11.93;9.37;;;9.40;64.90;;;;;;4988191;28;20058;-81
2021/05/03 04:42:09;;;;;;;12.93;9.80;;;9.40;64.70;;;;;;4996679;28;20072;-80
2021/05/03 04:44:35;;;;;;;11.93;8.87;;;9.40;64.80;;;;;;4994103;28;20394;-80
2021/05/03 04:47:01;;;;;;;10.70;9.60;;;9.30;64.80;;;;;;5011618;28;20018;-81
2021/05/03 04:49:27;;;;;;;11.77;9.80;;;9.40;64.70;;;;;;4986559;28;20053;-80
2021/05/03 04:51:52;;;;;;;11.00;9.17;;;9.40;64.60;;;;;;4990030;28;20060;-81
2021/05/03 04:54:18;;;;;;;12.00;9.90;;;9.30;64.70;;;;;;5002949;28;20107;-81
2021/05/03 04:56:44;;;;;;;11.67;9.50;;;9.30;64.60;;;;;;4992680;28;20033;-80
2021/05/03 04:59:10;;;;;;;10.10;9.00;;;9.30;64.70;;;;;;5011938;28;20033;-80
2021/05/03 05:01:36;;;;;;;14.43;11.00;;;9.40;64.80;;;;;;5011921;28;20398;-80
2021/05/03 05:04:02;;;;;;;12.83;10.27;;;9.40;64.90;;;;;;4990554;28;20026;-81
2021/05/03 05:06:28;;;;;;;15.43;9.90;;;9.40;65.10;;;;;;4992410;28;20034;-81
2021/05/03 05:08:54;;;;;;;14.60;9.70;;;9.40;65.10;;;;;;5000084;28;20368;-81
2021/05/03 05:11:19;;;;;;;11.83;9.80;;;9.40;65.20;;;;;;4993253;28;20038;-81
2021/05/03 05:13:45;;;;;;;14.43;11.20;;;9.50;65.40;;;;;;4999985;28;20053;-81
2021/05/03 05:16:11;;;;;;;17.87;11.87;;;9.50;65.40;;;;;;4999657;28;20375;-81
2021/05/03 05:18:37;;;;;;;16.67;10.77;;;9.40;65.50;;;;;;4999233;28;20036;-80
2021/05/03 05:21:03;;;;;;;14.87;11.17;;;9.40;65.70;;;;;;4999958;28;20056;-81
2021/05/03 05:23:29;;;;;;;12.03;10.10;;;9.40;65.90;;;;;;5000683;28;20140;-81
2021/05/03 05:25:55;;;;;;;14.80;11.37;;;9.50;65.70;;;;;;5001274;28;20053;-81
2021/05/03 05:28:20;;;;;;;12.43;11.00;;;9.60;65.50;;;;;;4999099;28;20068;-80
2021/05/03 05:30:46;;;;;;;12.17;10.87;;;9.70;65.40;;;;;;5017323;28;20046;-81
2021/05/03 05:33:12;;;;;;;13.40;10.50;;;9.80;65.30;;;;;;4994852;28;20033;-81
2021/05/03 05:35:37;;;;;;;13.83;10.57;;;9.80;65.10;;;;;;4991784;28;20060;-81
2021/05/03 05:38:03;;;;;;;11.83;9.80;;;9.90;64.80;;;;;;4991523;28;20030;-81
2021/05/03 05:40:31;;;;;;;9.80;8.80;;;9.90;64.60;;;;;;4998180;28;20041;-81
2021/05/03 05:42:57;;;;;;;14.63;9.70;;;9.90;64.30;;;;;;5018078;28;20105;-82
2021/05/03 05:45:23;;;;;;;11.87;9.20;;;9.90;64.20;;;;;;4991735;28;20022;-81
2021/05/03 05:47:48;;;;;;;11.03;9.93;;;9.90;64.10;;;;;;4995098;28;20184;-81
2021/05/03 05:50:14;;;;;;;15.97;10.27;;;9.90;64.20;;;;;;4997399;28;20045;-81
2021/05/03 05:52:40;;;;;;;12.97;10.93;;;10.00;64.20;;;;;;4994884;28;20025;-81
2021/05/03 05:55:06;;;;;;;17.03;10.63;;;10.00;64.20;;;;;;5001020;28;20026;-81
2021/05/03 05:57:31;;;;;;;12.63;9.83;;;10.00;64.30;;;;;;4999927;28;20434;-81
2021/05/03 05:59:57;;;;;;;18.60;10.00;;;10.00;64.30;;;;;;5018401;28;20033;-81
2021/05/03 06:02:23;;;;;;;12.03;9.43;;;10.00;64.60;;;;;;4998723;28;20026;-81
2021/05/03 06:04:48;;;;;;;13.67;10.13;;;10.00;64.80;;;;;;5017881;28;20076;-81
2021/05/03 06:07:14;;;;;;;13.50;10.77;;;10.00;64.80;;;;;;4991158;28;20106;-81
2021/05/03 06:09:40;;;;;;;12.40;10.27;;;10.00;64.80;;;;;;4999335;28;20030;-82
2021/05/03 06:12:06;;;;;;;14.57;10.50;;;10.10;64.90;;;;;;5000543;28;20074;-81
2021/05/03 06:14:32;;;;;;;14.60;11.00;;;10.10;64.80;;;;;;5016837;28;20040;-81
2021/05/03 06:16:57;;;;;;;12.77;9.90;;;10.20;64.90;;;;;;4996906;28;20022;-81
2021/05/03 06:19:23;;;;;;;15.53;11.57;;;10.20;64.60;;;;;;4993979;28;20056;-81
2021/05/03 06:21:49;;;;;;;13.80;12.03;;;10.20;64.60;;;;;;5014707;28;20018;-81
2021/05/03 06:24:14;;;;;;;13.23;10.63;;;10.30;64.50;;;;;;4991721;28;20046;-81
2021/05/03 06:26:40;;;;;;;15.37;10.77;;;10.30;64.40;;;;;;5007794;28;20854;-81
2021/05/03 06:29:06;;;;;;;13.97;10.40;;;10.30;64.40;;;;;;4997149;28;20037;-81
2021/05/03 06:31:32;;;;;;;12.70;10.77;;;10.40;64.40;;;;;;4992329;28;20554;-81
2021/05/03 06:33:58;;;;;;;12.57;11.27;;;10.40;64.20;;;;;;4982796;28;20054;-81
2021/05/03 06:36:24;;;;;;;16.40;11.57;;;10.50;64.30;;;;;;4992406;28;20437;-81
2021/05/03 06:38:50;;;;;;;14.93;12.37;;;10.50;64.20;;;;;;4994746;28;20031;-81
2021/05/03 06:41:15;;;;;;;11.93;10.67;;;10.50;64.00;;;;;;4994394;28;20037;-81
2021/05/03 06:43:41;;;;;;;13.47;10.60;;;10.60;63.90;;;;;;4994261;28;20082;-81
2021/05/03 06:46:07;;;;;;;13.50;10.97;;;10.60;63.80;;;;;;4994736;28;20029;-81
2021/05/03 06:48:32;;;;;;;19.43;12.30;;;10.70;63.60;;;;;;4996041;28;20424;-81
2021/05/03 06:50:58;;;;;;;14.50;11.83;;;10.70;63.40;;;;;;4990431;28;20027;-81
2021/05/03 06:53:25;;;;;;;14.87;12.43;;;10.80;63.40;;;;;;4993267;28;20431;-80
2021/05/03 06:55:51;;;;;;;13.73;12.33;;;10.90;63.30;;;;;;4988719;28;20479;-82
2021/05/03 06:58:17;;;;;;;12.57;10.97;;;10.90;63.10;;;;;;4987694;28;20085;-81
2021/05/03 07:00:43;;;;;;;14.63;11.33;;;11.10;63.00;;;;;;5007871;28;20019;-81
2021/05/03 07:03:10;;;;;;;13.13;11.60;;;11.10;62.70;;;;;;4986109;28;20036;-81
2021/05/03 07:05:37;;;;;;;11.83;10.50;;;11.20;62.50;;;;;;4992537;28;20029;-81
2021/05/03 07:08:03;;;;;;;12.50;11.20;;;11.20;62.30;;;;;;4994086;28;20041;-81
2021/05/03 07:10:30;;;;;;;12.70;11.20;;;11.40;62.30;;;;;;4984810;28;20099;-81
2021/05/03 07:12:56;;;;;;;11.83;10.40;;;11.50;61.90;;;;;;4991563;28;20084;-81
2021/05/03 07:15:21;;;;;;;13.17;11.77;;;11.50;61.70;;;;;;4988603;28;20035;-81
2021/05/03 07:17:47;;;;;;;16.07;11.30;;;11.60;61.60;;;;;;4991675;28;20034;-81
2021/05/03 07:20:22;;;;;;;12.33;10.77;;;11.70;61.40;;;;;;4990241;28;20109;-81
2021/05/03 07:22:48;;;;;;;13.53;11.73;;;11.70;61.20;;;;;;4985254;28;20027;-81
2021/05/03 07:25:15;;;;;;;15.10;12.33;;;11.70;61.00;;;;;;4987405;28;20029;-81
2021/05/03 07:27:41;;;;;;;11.83;10.40;;;11.70;60.80;;;;;;4987773;28;20018;-81
2021/05/03 07:30:10;;;;;;;14.50;12.07;;;11.70;60.70;;;;;;4986805;28;20043;-81
2021/05/03 07:32:37;;;;;;;11.97;10.77;;;11.80;60.60;;;;;;4987779;28;20023;-81
2021/05/03 07:35:09;;;;;;;12.90;11.50;;;11.80;60.50;;;;;;4991070;28;20018;-81
2021/05/03 08:40:28;;;;;;;7.30;5.93;;;14.40;53.40;;;;;;2024404;23;21131;-82
2021/05/03 08:42:55;;;;;;;7.97;6.03;;;14.30;53.60;;;;;;4992004;28;20124;-83
2021/05/03 08:45:21;;;;;;;8.87;6.90;;;14.30;53.70;;;;;;5008689;28;20060;-83
2021/05/03 08:53:43;;;;;;;6.83;6.13;;;14.20;53.30;;;;;;4930232;29;20038;-83
2021/05/03 08:56:10;;;;;;;5.80;5.20;;;14.30;53.00;;;;;;4993233;28;20041;-83
2021/05/03 08:58:40;;;;;;;5.03;4.50;;;14.60;52.70;;;;;;4998313;28;20030;-83
2021/05/03 09:01:07;;;;;;;7.30;5.37;;;14.90;51.80;;;;;;4995678;28;20382;-83
2021/05/03 09:03:39;;;;;;;6.63;4.67;;;15.20;51.10;;;;;;4996250;28;20550;-84
2021/05/03 09:06:10;;;;;;;7.28;4.20;;;15.30;50.50;;;;;;4996987;28;20037;-83
2021/05/03 09:08:36;;;;;;;5.95;5.13;;;15.50;50.20;;;;;;4993011;28;20120;-84
2021/05/03 09:11:01;;;;;;;5.05;4.00;;;15.60;49.40;;;;;;4984006;28;20104;-84
2021/05/03 09:13:33;;;;;;;7.68;4.93;;;15.70;48.70;;;;;;4988850;28;20030;-84
2021/05/03 09:16:41;;;;;;;5.20;4.03;;;15.90;48.00;;;;;;4996200;28;20038;-84
2021/05/03 09:19:09;;;;;;;4.65;3.35;;;16.10;47.60;;;;;;4931932;29;20587;-85
2021/05/03 09:21:35;;;;;;;4.07;3.67;;;16.30;47.70;;;;;;4931849;29;20028;-84
2021/05/03 09:24:32;;;;;;;4.28;3.70;;;16.40;47.00;;;;;;4955551;28;20041;-84
2021/05/03 09:27:04;;;;;;;4.20;3.50;;;16.50;45.90;;;;;;5008856;28;21100;-84
2021/05/03 09:29:37;;;;;;;5.25;3.40;;;16.60;45.80;;;;;;4993107;28;20038;-84
2021/05/03 09:32:11;;;;;;;5.13;3.35;;;16.80;45.40;;;;;;4986216;28;20577;-85
2021/05/03 09:34:48;;;;;;;4.53;2.70;;;16.90;45.00;;;;;;4993834;28;20041;-84
2021/05/03 09:37:27;;;;;;;5.15;2.53;;;17.00;43.80;;;;;;4999782;28;20035;-84
2021/05/03 09:40:16;;;;;;;2.22;2.03;;;17.10;42.80;;;;;;4977828;28;20061;-85
2021/05/03 09:42:55;;;;;;;5.25;2.78;;;17.20;42.30;;;;;;4982357;28;20124;-84
2021/05/03 09:45:27;;;;;;;4.43;3.03;;;17.30;42.20;;;;;;4984789;28;20033;-84
2021/05/03 09:47:56;;;;;;;4.20;3.30;;;17.30;41.70;;;;;;5009171;28;20470;-84
2021/05/03 09:50:28;;;;;;;3.95;2.95;;;17.40;41.40;;;;;;4993870;28;20053;-85
2021/05/03 09:53:04;;;;;;;2.47;2.13;;;17.50;40.90;;;;;;4987466;28;20030;-84
2021/05/03 09:55:37;;;;;;;5.28;2.53;;;17.60;40.00;;;;;;4997273;28;20113;-85
2021/05/03 09:58:26;;;;;;;3.95;3.00;;;17.70;40.10;;;;;;4994709;28;20475;-84
2021/05/03 10:00:53;;;;;;;2.95;2.70;;;17.80;38.80;;;;;;4989924;28;20026;-84
2021/05/03 10:03:47;;;;;;;3.58;2.80;;;17.50;39.10;;;;;;4990547;28;20497;-84
2021/05/03 10:06:18;;;;;;;3.88;2.65;;;17.40;39.20;;;;;;4990684;28;20025;-84
2021/05/03 10:08:48;;;;;;;5.30;2.85;;;17.50;39.60;;;;;;4997802;28;20398;-84
2021/05/03 10:11:16;;;;;;;2.60;2.40;;;17.60;40.10;;;;;;4997474;28;20029;-84
2021/05/03 10:13:44;;;;;;;3.47;2.35;;;17.80;39.20;;;;;;5003747;28;20053;-84
2021/05/03 10:16:11;;;;;;;4.68;2.70;;;17.90;38.80;;;;;;4991592;28;20059;-84
2021/05/03 10:18:40;;;;;;;3.13;2.83;;;18.00;38.60;;;;;;4990017;28;20065;-84
2021/05/03 10:21:08;;;;;;;3.20;2.15;;;18.00;37.50;;;;;;4994817;28;20018;-84
2021/05/03 10:23:34;;;;;;;2.42;2.22;;;17.90;37.40;;;;;;5014134;28;20058;-84
2021/05/03 10:26:04;;;;;;;4.28;2.88;;;18.00;37.80;;;;;;4996038;28;20514;-84
2021/05/03 10:28:29;;;;;;;4.50;2.50;;;18.30;37.50;;;;;;4992674;28;20121;-85
2021/05/03 10:30:57;;;;;;;4.35;2.83;;;18.40;37.60;;;;;;4994478;28;20108;-87
2021/05/03 10:33:37;;;;;;;4.60;2.47;;;18.50;37.10;;;;;;4995586;28;20829;-87
2021/05/03 10:36:05;;;;;;;4.10;2.58;;;18.60;36.80;;;;;;4996721;28;20471;-85
2021/05/03 10:38:36;;;;;;;4.90;2.38;;;18.70;36.90;;;;;;4995450;28;20553;-85
2021/05/03 10:41:21;;;;;;;6.78;2.80;;;18.80;36.40;;;;;;5013298;28;20038;-85
2021/05/03 10:43:46;;;;;;;2.65;2.03;;;18.80;36.20;;;;;;4996196;28;20498;-85
2021/05/03 10:49:06;;;;;;;4.68;1.98;;;18.60;36.10;;;;;;5009245;28;20516;-85
2021/05/03 10:51:57;;;;;;;2.97;2.25;;;18.50;36.40;;;;;;4986970;28;20026;-85
2021/05/03 10:57:04;;;;;;;4.18;2.20;;;18.40;36.40;;;;;;5014810;28;20030;-85
2021/05/03 10:59:58;;;;;;;2.67;2.13;;;18.50;36.50;;;;;;4997926;28;20026;-85
2021/05/03 11:02:26;;;;;;;4.38;2.22;;;18.60;35.90;;;;;;4991183;28;20033;-84
2021/05/03 11:05:24;;;;;;;3.45;2.15;;;18.50;36.00;;;;;;5012544;28;20113;-85
2021/05/03 11:08:05;;;;;;;7.18;2.03;;;18.60;35.90;;;;;;5009652;28;20100;-85
2021/05/03 11:10:53;;;;;;;5.03;2.58;;;18.80;36.50;;;;;;4985983;28;20053;-85
2021/05/03 11:14:00;;;;;;;2.92;1.30;;;19.00;35.80;;;;;;5001568;28;20022;-85
2021/05/03 11:16:26;;;;;;;2.45;2.10;;;19.20;36.20;;;;;;4970001;28;20042;-85
2021/05/03 11:18:53;;;;;;;3.28;2.38;;;19.00;35.50;;;;;;4994004;28;20034;-84
2021/05/03 11:21:42;;;;;;;5.28;3.30;;;18.90;35.60;;;;;;4988804;28;20054;-85
2021/05/03 11:24:19;;;;;;;5.68;3.95;;;18.80;36.50;;;;;;4991474;28;20508;-85
2021/05/03 11:26:53;;;;;;;3.50;3.20;;;18.70;37.00;;;;;;4991310;28;20034;-85
2021/05/03 11:29:22;;;;;;;4.28;3.80;;;18.60;37.70;;;;;;4994848;28;20033;-85
2021/05/03 11:31:48;;;;;;;6.07;3.05;;;18.30;38.20;;;;;;4994475;28;20081;-85
2021/05/03 11:36:53;;;;;;;5.75;3.40;;;18.30;38.00;;;;;;5012921;28;20058;-85
2021/05/03 11:44:58;;;;;;;5.32;2.25;;;18.30;37.20;;;;;;5011685;28;20516;-84
2021/05/03 11:47:52;;;;;;;3.95;2.08;;;18.60;37.50;;;;;;4994542;28;20033;-85
2021/05/03 11:50:23;;;;;;;4.88;3.53;;;18.60;37.10;;;;;;4991594;28;20045;-84
2021/05/03 11:52:49;;;;;;;4.10;3.38;;;18.60;37.20;;;;;;5005050;28;20029;-85
2021/05/03 11:55:18;;;;;;;5.63;3.53;;;18.60;37.60;;;;;;4992599;28;20025;-85
2021/05/03 11:57:45;;;;;;;5.97;3.65;;;18.50;37.70;;;;;;5010050;28;20082;-84
2021/05/03 12:00:23;;;;;;;6.00;3.15;;;18.60;38.00;;;;;;5010775;28;20038;-85
2021/05/03 12:03:12;;;;;;;7.45;2.92;;;18.60;38.10;;;;;;4993910;28;20033;-85
2021/05/03 12:05:38;;;;;;;5.68;3.20;;;18.70;37.80;;;;;;4989257;28;20505;-85
2021/05/03 12:08:14;;;;;;;3.10;2.78;;;18.50;38.00;;;;;;4991832;28;20026;-85
2021/05/03 12:10:39;;;;;;;6.22;2.40;;;18.60;38.20;;;;;;4993993;28;20018;-85
2021/05/03 12:13:11;;;;;;;6.38;3.40;;;18.70;38.30;;;;;;4991832;28;20071;-85
2021/05/03 12:15:37;;;;;;;5.10;2.70;;;18.70;38.10;;;;;;4988479;28;20027;-85
2021/05/03 12:18:05;;;;;;;3.83;2.55;;;18.80;37.90;;;;;;4987256;28;20034;-85
2021/05/03 12:20:33;;;;;;;4.97;2.92;;;19.00;37.80;;;;;;4988135;28;20053;-85
2021/05/03 12:23:07;;;;;;;3.40;3.10;;;18.90;37.50;;;;;;4994131;28;20025;-85
2021/05/03 12:25:44;;;;;;;4.93;2.97;;;18.90;37.70;;;;;;4994662;28;20478;-85
2021/05/03 12:28:20;;;;;;;5.18;2.63;;;19.00;37.90;;;;;;4994081;28;20034;-85
2021/05/03 12:30:47;;;;;;;8.60;3.35;;;19.10;37.70;;;;;;4988088;28;20463;-85
2021/05/03 12:33:20;;;;;;;4.63;2.53;;;19.10;37.50;;;;;;5004194;28;20454;-85
2021/05/03 12:35:48;;;;;;;5.32;2.42;;;19.20;37.30;;;;;;4988159;28;20034;-85
2021/05/03 12:38:31;;;;;;;4.78;2.90;;;19.20;37.40;;;;;;4990665;28;20049;-85
2021/05/03 12:40:57;;;;;;;;;;;19.20;36.60;;;;;;4988919;28;20478;-85
2021/05/03 12:43:36;;;;;;;5.93;2.95;;;19.10;36.70;;;;;;4988761;28;19909;-85
2021/05/03 12:46:07;;;;;;;3.10;2.35;;;19.00;36.40;;;;;;4989042;28;20037;-85
2021/05/03 13:25:29;;;;;;;3.50;1.60;;;19.60;35.20;;;;;;5008548;28;20084;-84
2021/05/03 13:30:23;;;;;;;1.88;1.58;;;19.70;34.40;;;;;;5015012;28;20043;-84
2021/05/03 13:32:50;;;;;;;2.08;1.35;;;19.70;34.30;;;;;;4993422;28;21629;-84
2021/05/03 13:35:15;;;;;;;1.90;1.30;;;19.70;33.90;;;;;;4991255;28;20045;-84
2021/05/03 13:37:41;;;;;;;2.90;1.40;;;19.70;33.80;;;;;;5005149;28;20030;-84
2021/05/03 13:40:08;;;;;;;3.65;1.48;;;19.80;33.60;;;;;;4996243;28;20128;-83
2021/05/03 13:42:34;;;;;;;2.15;1.73;;;19.80;33.60;;;;;;4991667;28;20411;-84
2021/05/03 13:44:59;;;;;;;1.40;1.10;;;19.70;33.30;;;;;;4997383;28;20040;-84
2021/05/03 13:47:25;;;;;;;2.05;1.50;;;19.80;33.50;;;;;;4995001;28;20124;-85
2021/05/03 13:49:51;;;;;;;1.67;1.23;;;19.80;33.60;;;;;;4997763;28;20057;-85
2021/05/03 13:52:17;;;;;;;1.85;1.23;;;19.80;33.30;;;;;;5019758;28;20042;-84
2021/05/03 13:54:42;;;;;;;1.98;1.75;;;19.80;33.60;;;;;;4999466;28;20439;-84
2021/05/03 13:57:08;;;;;;;1.48;1.25;;;19.90;33.40;;;;;;4985269;28;20027;-84
2021/05/03 13:59:34;;;;;;;2.25;1.52;;;19.70;33.60;;;;;;4998774;28;20073;-84
2021/05/03 14:02:03;;;;;;;1.67;1.40;;;19.70;33.70;;;;;;4994353;28;20036;-84
2021/05/03 14:04:28;;;;;;;1.70;1.33;;;19.80;33.60;;;;;;5015617;28;20030;-84
2021/05/03 14:06:59;;;;;;;3.42;1.55;;;19.90;33.60;;;;;;4997123;28;20383;-84
2021/05/03 14:09:25;;;;;;;2.70;1.20;;;19.70;32.70;;;;;;4998212;28;20769;-84
2021/05/03 14:11:51;;;;;;;2.25;1.92;;;19.70;33.00;;;;;;4995199;28;20128;-85
2021/05/03 14:14:17;;;;;;;1.92;1.33;;;19.50;32.70;;;;;;4996745;28;20093;-85
2021/05/03 14:16:43;;;;;;;2.00;1.42;;;19.30;32.70;;;;;;4997778;28;20045;-84
2021/05/03 14:19:12;;;;;;;2.30;1.70;;;19.30;33.10;;;;;;4992917;28;20049;-84
2021/05/03 14:21:38;;;;;;;2.13;1.52;;;19.30;33.10;;;;;;4996344;28;20026;-84
2021/05/03 14:24:05;;;;;;;1.77;1.60;;;19.20;33.10;;;;;;4995889;28;20646;-84
2021/05/03 14:26:33;;;;;;;2.10;1.13;;;19.20;33.70;;;;;;4989071;28;20034;-84
2021/05/03 14:29:10;;;;;;;2.60;1.00;;;19.30;33.90;;;;;;4988417;28;20398;-84
2021/05/03 14:31:45;;;;;;;2.40;0.90;;;19.30;34.20;;;;;;4990387;28;20043;-84
2021/05/03 14:34:26;;;;;;;2.78;1.20;;;19.40;34.60;;;;;;5012544;28;20041;-84
2021/05/03 14:36:52;;;;;;;4.75;1.58;;;19.40;34.60;;;;;;4988546;28;20077;-85
2021/05/03 14:39:18;;;;;;;3.92;1.85;;;19.30;34.10;;;;;;4993753;28;20804;-85
2021/05/03 14:41:44;;;;;;;8.15;1.50;;;19.20;34.30;;;;;;5011142;28;20064;-84
2021/05/03 14:44:13;;;;;;;1.75;1.23;;;19.20;34.20;;;;;;4995775;28;20113;-84
2021/05/03 14:46:43;;;;;;;2.03;1.50;;;19.10;34.30;;;;;;5007865;28;20029;-85
2021/05/03 14:49:31;;;;;;;1.67;1.38;;;19.20;34.40;;;;;;4993371;28;20418;-85
2021/05/03 14:52:08;;;;;;;2.58;1.10;;;19.30;34.50;;;;;;4993114;28;20588;-84
2021/05/03 14:54:41;;;;;;;1.40;1.10;;;19.30;34.40;;;;;;4990664;28;20030;-84
2021/05/03 14:57:14;;;;;;;7.20;1.23;;;19.30;34.50;;;;;;4990637;28;20486;-84
2021/05/03 14:59:40;;;;;;;;;;;19.30;34.10;;;;;;5009778;28;20046;-84
2021/05/03 15:02:06;;;;;;;1.92;1.08;;;19.10;34.40;;;;;;4984396;28;19913;-84
2021/05/03 15:04:33;;;;;;;3.47;1.27;;;19.20;34.60;;;;;;4984923;28;20026;-84